Yasemin — 9HA2114 — position and weather

sailwx.info

Track history (hours):
 
Tides and Currents Weather Stations Pressure Air Temp Water Temp Dewpoint Dewpoint Depression Visibility Wind Speed Wind Dir Waves Ship Positions

Yasemin

Last reported at 2015-Jul-02 03:33 UTC. Time now 2015-Jul-02 03:41 UTC.
Position N 37°13' E 011°37'.

Length 105 m; draft 7 m.

Type: Cargo ship. MMSI: 249988000.

Date/timePositionNaut miles runAvg speedWind from/ knotsBaromVisibWave heightAir tempDewpointWater temp
2015-Jul-02 03:33N 37°13' E 011°37'1111.4
2015-Jul-02 02:33N 37°17' E 011°24'1211.7
2015-Jul-02 01:33N 37°22' E 011°11'1212.1
2015-Jul-02 00:33N 37°25' E 010°56'1212.1
2015-Jul-01 23:33N 37°28' E 010°41'1211.8
2015-Jul-01 22:33N 37°31' E 010°27'1211.8
2015-Jul-01 21:33N 37°33' E 010°12'1211.7
2015-Jul-01 20:33N 37°33' E 009°58'1211.6
2015-Jul-01 19:33N 37°29' E 009°44'1111.1
2015-Jul-01 18:33N 37°26' E 009°30'1110.7
2015-Jul-01 17:33N 37°23' E 009°17'3010.0
2015-Jul-01 14:32N 37°14' E 008°41'1010.0
2015-Jul-01 13:33N 37°15' E 008°29'1010.1
2015-Jul-01 12:33N 37°15' E 008°16'1010.5
2015-Jul-01 11:33N 37°15' E 008°03'1410.8
2015-Jul-01 10:17N 37°16' E 007°46'810.9
2015-Jul-01 09:32N 37°17' E 007°35'1110.9
2015-Jul-01 08:33N 37°17' E 007°22'1510.9
2015-Jul-01 07:12N 37°17' E 007°03'910.9
2015-Jul-01 06:20N 37°16' E 006°52'910.9
2015-Jul-01 05:33N 37°16' E 006°41'1110.7
2015-Jul-01 04:33N 37°15' E 006°27'1010.3
2015-Jul-01 03:33N 37°15' E 006°15'1010.4
2015-Jul-01 02:33N 37°14' E 006°01'1010.3
2015-Jul-01 01:33N 37°14' E 005°49'1110.6
2015-Jul-01 00:32N 37°13' E 005°35'1010.6
2015-Jun-30 23:33N 37°13' E 005°22'1110.9
2015-Jun-30 22:33N 37°13' E 005°08'1111.0
2015-Jun-30 21:33N 37°12' E 004°54'1110.8
2015-Jun-30 20:33N 37°12' E 004°41'1110.7
2015-Jun-30 19:33N 37°11' E 004°28'1010.5
2015-Jun-30 18:33N 37°10' E 004°14'1010.2
2015-Jun-30 17:33N 37°10' E 004°02'1010.0
2015-Jun-30 16:33N 37°08' E 003°49'1210.3
2015-Jun-30 15:24N 37°06' E 003°35'910.5
2015-Jun-30 14:33N 37°04' E 003°24'1110.3
2015-Jun-30 13:32N 37°02' E 003°11'1010.7
2015-Jun-30 12:33N 37°00' E 002°58'1110.9
2015-Jun-30 11:33N 36°58' E 002°45'1111.1
2015-Jun-30 10:33N 36°55' E 002°31'1111.0
2015-Jun-30 09:33N 36°52' E 002°18'1110.9
2015-Jun-30 08:33N 36°49' E 002°05'1111.2
2015-Jun-30 07:33N 36°46' E 001°51'1111.5
2015-Jun-30 06:33N 36°43' E 001°37'1111.1
2015-Jun-30 05:33N 36°40' E 001°24'1111.1
2015-Jun-30 04:33N 36°37' E 001°11'1110.7
2015-Jun-30 03:33N 36°34' E 000°58'1010.5
2015-Jun-30 02:33N 36°32' E 000°45'1110.7
2015-Jun-30 01:33N 36°29' E 000°32'1111.0
2015-Jun-30 00:33N 36°26' E 000°19'1111.1
2015-Jun-29 23:32N 36°23' E 000°05'1110.7
2015-Jun-29 22:31N 36°20' W 000°08'1010.6
2015-Jun-29 21:32N 36°17' W 000°20'1010.6
2015-Jun-29 20:33N 36°15' W 000°32'1410.9
2015-Jun-29 19:18N 36°11' W 000°49'910.9
2015-Jun-29 18:29N 36°09' W 000°60'4210.4
2015-Jun-29 14:26N 35°58' W 001°50'8610.9
2015-Jun-29 06:33N 35°47' W 003°35'8311.9
2015-Jun-28 23:33N 35°59' W 005°17'1512.2
2015-Jun-28 22:20N 35°56' W 005°35'3910.1
2015-Jun-28 18:31N 35°56' W 006°23'3411.5
2015-Jun-28 15:33N 36°05' W 007°03'1111.3
2015-Jun-28 14:33N 36°07' W 007°17'1110.9
2015-Jun-28 13:33N 36°10' W 007°30'1111.0
2015-Jun-28 12:33N 36°13' W 007°43'1111.0
2015-Jun-28 11:33N 36°16' W 007°56'1110.5
2015-Jun-28 10:33N 36°18' W 008°09'1110.9
2015-Jun-28 09:33N 36°21' W 008°22'1111.3
2015-Jun-28 08:33N 36°24' W 008°35'3028.6
2015-Jun-28 07:31N 36°33' W 009°11'5 3.9
2015-Jun-28 06:22N 36°34' W 009°16'3 4.0
2015-Jun-28 05:33N 36°36' W 009°20'7 7.5
2015-Jun-28 04:33N 36°41' W 009°26'1111.0
2015-Jun-28 03:33N 36°50' W 009°34'1111.3
2015-Jun-28 02:33N 37°01' W 009°37'1111.3
2015-Jun-28 01:33N 37°12' W 009°40'1111.3
2015-Jun-28 00:33N 37°24' W 009°43'1111.5
2015-Jun-27 23:33N 37°34' W 009°46'1211.5
2015-Jun-27 22:33N 37°46' W 009°50'1211.6
2015-Jun-27 21:33N 37°57' W 009°54'1211.9
2015-Jun-27 20:33N 38°09' W 009°57'1211.8
2015-Jun-27 19:33N 38°20' W 010°00'1211.7
2015-Jun-27 18:33N 38°31' W 010°04'1211.6
2015-Jun-27 17:33N 38°43' W 010°07'1211.6
2015-Jun-27 16:33N 38°55' W 010°07'1211.8
2015-Jun-27 15:33N 39°06' W 010°07'1212.0
2015-Jun-27 14:32N 39°19' W 010°07'3711.7
2015-Jun-27 11:20N 39°56' W 010°06'911.7
2015-Jun-27 10:33N 40°05' W 010°06'1211.5
2015-Jun-27 09:33N 40°17' W 010°06'1211.6
2015-Jun-27 08:32N 40°29' W 010°06'1111.6
2015-Jun-27 07:33N 40°40' W 010°06'1411.7
2015-Jun-27 06:23N 40°54' W 010°06'1011.4
2015-Jun-27 05:32N 41°03' W 010°06'37110.6
2015-Jun-25 18:23N 46°55' W 007°21'75 9.5
2015-Jun-25 10:26N 48°01' W 006°30'4310.9
2015-Jun-25 06:29N 48°39' W 005°60'8011.0
2015-Jun-24 23:12N 49°26' W 004°21'1010.3
2015-Jun-24 22:12N 49°31' W 004°07'4511.5
2015-Jun-24 18:19N 49°53' W 003°07'912.2
2015-Jun-24 17:33N 49°58' W 002°55'1211.8
2015-Jun-24 16:33N 50°02' W 002°37'1111.0
2015-Jun-24 15:31N 50°05' W 002°21'1010.1
2015-Jun-24 14:32N 50°08' W 002°06'9 9.2
2015-Jun-24 13:33N 50°10' W 001°52'20 9.3
2015-Jun-24 11:21N 50°16' W 001°21'810.5
2015-Jun-24 10:33N 50°18' W 001°09'5112.2
2015-Jun-24 06:22N 50°32' E 000°08'1011.7
2015-Jun-24 05:33N 50°35' E 000°23'1111.1
2015-Jun-24 04:33N 50°39' E 000°39'1010.5
2015-Jun-24 03:33N 50°46' E 000°52'1010.2
2015-Jun-24 02:33N 50°52' E 001°05'1110.7
2015-Jun-24 01:33N 50°59' E 001°17'1212.4
2015-Jun-24 00:33N 51°07' E 001°32'1313.0
2015-Jun-23 23:33N 51°16' E 001°47'1212.1
2015-Jun-23 22:33N 51°27' E 001°53'1111.0
2015-Jun-23 21:33N 51°37' E 001°46'1010.5
2015-Jun-23 20:33N 51°48' E 001°43'10 9.8
2015-Jun-23 19:33N 51°57' E 001°44'4 9.2
2015-Jun-23 19:06N 52°01' E 001°41'19 0.8
2015-Jun-22 19:31N 52°02' E 001°10'0 0.0
2015-Jun-22 18:31N 52°02' E 001°10'0 0.0
2015-Jun-22 17:31N 52°02' E 001°10'0 0.0
2015-Jun-22 16:31N 52°02' E 001°10'0 0.0
2015-Jun-22 15:31N 52°02' E 001°10'0 0.0
2015-Jun-22 14:31N 52°02' E 001°10'0 0.0
2015-Jun-22 13:31N 52°02' E 001°10'0 0.0
2015-Jun-22 12:31N 52°02' E 001°10'0 0.0
2015-Jun-22 11:31N 52°02' E 001°10'0 0.0
2015-Jun-22 10:31N 52°02' E 001°10'0 0.0
2015-Jun-22 09:31N 52°02' E 001°10'0 0.0
2015-Jun-22 08:31N 52°02' E 001°10'0 0.0
2015-Jun-22 07:31N 52°02' E 001°10'0 0.0
2015-Jun-22 06:31N 52°02' E 001°10'0 0.0
2015-Jun-22 05:31N 52°02' E 001°10'0 0.0
2015-Jun-22 04:31N 52°02' E 001°10'  
Track history (hours):
 
Tides and Currents Weather Stations Pressure Air Temp Water Temp Dewpoint Dewpoint Depression Visibility Wind Speed Wind Dir Waves Ship Positions

Yasemin

Last reported at 2015-Jul-02 03:33 UTC. Time now 2015-Jul-02 03:41 UTC.
Position N 37°13' E 011°37'.

Length 105 m; draft 7 m.

Type: Cargo ship. MMSI: 249988000.

Date/timePositionNaut miles runAvg speedWind from/ knotsBaromVisibWave heightAir tempDewpointWater temp
2015-Jul-02 03:33N 37°13' E 011°37'1111.4
2015-Jul-02 02:33N 37°17' E 011°24'1211.7
2015-Jul-02 01:33N 37°22' E 011°11'1212.1
2015-Jul-02 00:33N 37°25' E 010°56'1212.1
2015-Jul-01 23:33N 37°28' E 010°41'1211.8
2015-Jul-01 22:33N 37°31' E 010°27'1211.8
2015-Jul-01 21:33N 37°33' E 010°12'1211.7
2015-Jul-01 20:33N 37°33' E 009°58'1211.6
2015-Jul-01 19:33N 37°29' E 009°44'1111.1
2015-Jul-01 18:33N 37°26' E 009°30'1110.7
2015-Jul-01 17:33N 37°23' E 009°17'3010.0
2015-Jul-01 14:32N 37°14' E 008°41'1010.0
2015-Jul-01 13:33N 37°15' E 008°29'1010.1
2015-Jul-01 12:33N 37°15' E 008°16'1010.5
2015-Jul-01 11:33N 37°15' E 008°03'1410.8
2015-Jul-01 10:17N 37°16' E 007°46'810.9
2015-Jul-01 09:32N 37°17' E 007°35'1110.9
2015-Jul-01 08:33N 37°17' E 007°22'1510.9
2015-Jul-01 07:12N 37°17' E 007°03'910.9
2015-Jul-01 06:20N 37°16' E 006°52'910.9
2015-Jul-01 05:33N 37°16' E 006°41'1110.7
2015-Jul-01 04:33N 37°15' E 006°27'1010.3
2015-Jul-01 03:33N 37°15' E 006°15'1010.4
2015-Jul-01 02:33N 37°14' E 006°01'1010.3
2015-Jul-01 01:33N 37°14' E 005°49'1110.6
2015-Jul-01 00:32N 37°13' E 005°35'1010.6
2015-Jun-30 23:33N 37°13' E 005°22'1110.9
2015-Jun-30 22:33N 37°13' E 005°08'1111.0
2015-Jun-30 21:33N 37°12' E 004°54'1110.8
2015-Jun-30 20:33N 37°12' E 004°41'1110.7
2015-Jun-30 19:33N 37°11' E 004°28'1010.5
2015-Jun-30 18:33N 37°10' E 004°14'1010.2
2015-Jun-30 17:33N 37°10' E 004°02'1010.0
2015-Jun-30 16:33N 37°08' E 003°49'1210.3
2015-Jun-30 15:24N 37°06' E 003°35'910.5
2015-Jun-30 14:33N 37°04' E 003°24'1110.3
2015-Jun-30 13:32N 37°02' E 003°11'1010.7
2015-Jun-30 12:33N 37°00' E 002°58'1110.9
2015-Jun-30 11:33N 36°58' E 002°45'1111.1
2015-Jun-30 10:33N 36°55' E 002°31'1111.0
2015-Jun-30 09:33N 36°52' E 002°18'1110.9
2015-Jun-30 08:33N 36°49' E 002°05'1111.2
2015-Jun-30 07:33N 36°46' E 001°51'1111.5
2015-Jun-30 06:33N 36°43' E 001°37'1111.1
2015-Jun-30 05:33N 36°40' E 001°24'1111.1
2015-Jun-30 04:33N 36°37' E 001°11'1110.7
2015-Jun-30 03:33N 36°34' E 000°58'1010.5
2015-Jun-30 02:33N 36°32' E 000°45'1110.7
2015-Jun-30 01:33N 36°29' E 000°32'1111.0
2015-Jun-30 00:33N 36°26' E 000°19'1111.1
2015-Jun-29 23:32N 36°23' E 000°05'1110.7
2015-Jun-29 22:31N 36°20' W 000°08'1010.6
2015-Jun-29 21:32N 36°17' W 000°20'1010.6
2015-Jun-29 20:33N 36°15' W 000°32'1410.9
2015-Jun-29 19:18N 36°11' W 000°49'910.9
2015-Jun-29 18:29N 36°09' W 000°60'4210.4
2015-Jun-29 14:26N 35°58' W 001°50'8610.9
2015-Jun-29 06:33N 35°47' W 003°35'8311.9
2015-Jun-28 23:33N 35°59' W 005°17'1512.2
2015-Jun-28 22:20N 35°56' W 005°35'3910.1
2015-Jun-28 18:31N 35°56' W 006°23'3411.5
2015-Jun-28 15:33N 36°05' W 007°03'1111.3
2015-Jun-28 14:33N 36°07' W 007°17'1110.9
2015-Jun-28 13:33N 36°10' W 007°30'1111.0
2015-Jun-28 12:33N 36°13' W 007°43'1111.0
2015-Jun-28 11:33N 36°16' W 007°56'1110.5
2015-Jun-28 10:33N 36°18' W 008°09'1110.9
2015-Jun-28 09:33N 36°21' W 008°22'1111.3
2015-Jun-28 08:33N 36°24' W 008°35'3028.6
2015-Jun-28 07:31N 36°33' W 009°11'5 3.9
2015-Jun-28 06:22N 36°34' W 009°16'3 4.0
2015-Jun-28 05:33N 36°36' W 009°20'7 7.5
2015-Jun-28 04:33N 36°41' W 009°26'1111.0
2015-Jun-28 03:33N 36°50' W 009°34'1111.3
2015-Jun-28 02:33N 37°01' W 009°37'1111.3
2015-Jun-28 01:33N 37°12' W 009°40'1111.3
2015-Jun-28 00:33N 37°24' W 009°43'1111.5
2015-Jun-27 23:33N 37°34' W 009°46'1211.5
2015-Jun-27 22:33N 37°46' W 009°50'1211.6
2015-Jun-27 21:33N 37°57' W 009°54'1211.9
2015-Jun-27 20:33N 38°09' W 009°57'1211.8
2015-Jun-27 19:33N 38°20' W 010°00'1211.7
2015-Jun-27 18:33N 38°31' W 010°04'1211.6
2015-Jun-27 17:33N 38°43' W 010°07'1211.6
2015-Jun-27 16:33N 38°55' W 010°07'1211.8
2015-Jun-27 15:33N 39°06' W 010°07'1212.0
2015-Jun-27 14:32N 39°19' W 010°07'3711.7
2015-Jun-27 11:20N 39°56' W 010°06'911.7
2015-Jun-27 10:33N 40°05' W 010°06'1211.5
2015-Jun-27 09:33N 40°17' W 010°06'1211.6
2015-Jun-27 08:32N 40°29' W 010°06'1111.6
2015-Jun-27 07:33N 40°40' W 010°06'1411.7
2015-Jun-27 06:23N 40°54' W 010°06'1011.4
2015-Jun-27 05:32N 41°03' W 010°06'37110.6
2015-Jun-25 18:23N 46°55' W 007°21'75 9.5
2015-Jun-25 10:26N 48°01' W 006°30'4310.9
2015-Jun-25 06:29N 48°39' W 005°60'8011.0
2015-Jun-24 23:12N 49°26' W 004°21'1010.3
2015-Jun-24 22:12N 49°31' W 004°07'4511.5
2015-Jun-24 18:19N 49°53' W 003°07'912.2
2015-Jun-24 17:33N 49°58' W 002°55'1211.8
2015-Jun-24 16:33N 50°02' W 002°37'1111.0
2015-Jun-24 15:31N 50°05' W 002°21'1010.1
2015-Jun-24 14:32N 50°08' W 002°06'9 9.2
2015-Jun-24 13:33N 50°10' W 001°52'20 9.3
2015-Jun-24 11:21N 50°16' W 001°21'810.5
2015-Jun-24 10:33N 50°18' W 001°09'5112.2
2015-Jun-24 06:22N 50°32' E 000°08'1011.7
2015-Jun-24 05:33N 50°35' E 000°23'1111.1
2015-Jun-24 04:33N 50°39' E 000°39'1010.5
2015-Jun-24 03:33N 50°46' E 000°52'1010.2
2015-Jun-24 02:33N 50°52' E 001°05'1110.7
2015-Jun-24 01:33N 50°59' E 001°17'1212.4
2015-Jun-24 00:33N 51°07' E 001°32'1313.0
2015-Jun-23 23:33N 51°16' E 001°47'1212.1
2015-Jun-23 22:33N 51°27' E 001°53'1111.0
2015-Jun-23 21:33N 51°37' E 001°46'1010.5
2015-Jun-23 20:33N 51°48' E 001°43'10 9.8
2015-Jun-23 19:33N 51°57' E 001°44'4 9.2
2015-Jun-23 19:06N 52°01' E 001°41'19 0.8
2015-Jun-22 19:31N 52°02' E 001°10'0 0.0
2015-Jun-22 18:31N 52°02' E 001°10'0 0.0
2015-Jun-22 17:31N 52°02' E 001°10'0 0.0
2015-Jun-22 16:31N 52°02' E 001°10'0 0.0
2015-Jun-22 15:31N 52°02' E 001°10'0 0.0
2015-Jun-22 14:31N 52°02' E 001°10'0 0.0
2015-Jun-22 13:31N 52°02' E 001°10'0 0.0
2015-Jun-22 12:31N 52°02' E 001°10'0 0.0
2015-Jun-22 11:31N 52°02' E 001°10'0 0.0
2015-Jun-22 10:31N 52°02' E 001°10'0 0.0
2015-Jun-22 09:31N 52°02' E 001°10'0 0.0
2015-Jun-22 08:31N 52°02' E 001°10'0 0.0
2015-Jun-22 07:31N 52°02' E 001°10'0 0.0
2015-Jun-22 06:31N 52°02' E 001°10'0 0.0
2015-Jun-22 05:31N 52°02' E 001°10'0 0.0
2015-Jun-22 04:31N 52°02' E 001°10'  

Dump ship's entire track history